Time;durP1;ratioP1;P1;durP2;ratioP2;P2;SDS_P1;SDS_P2;PMS_P1;PMS_P2;Temp;Humidity;BMP_temperature;BMP_pressure;BME280_temperature;BME280_humidity;BME280_pressure;Samples;Min_cycle;Max_cycle;Signal;HPM_P1;HPM_P2
2022/12/13 00:02:10;;;;;;;34.33;17.47;;;-7.60;99.90;;;;;;4977772;28;20655;-78
2022/12/13 00:04:36;;;;;;;30.07;17.23;;;-7.60;99.90;;;;;;4978882;28;20694;-79
2022/12/13 00:07:02;;;;;;;28.27;16.47;;;-7.60;99.90;;;;;;4979342;28;20209;-78
2022/12/13 00:09:27;;;;;;;33.07;16.50;;;-7.60;99.90;;;;;;4989367;28;20220;-79
2022/12/13 00:11:53;;;;;;;29.97;15.97;;;-7.70;99.90;;;;;;4974947;28;20188;-78
2022/12/13 00:14:19;;;;;;;25.30;15.13;;;-7.70;99.90;;;;;;4967583;28;20251;-77
2022/12/13 00:16:46;;;;;;;29.70;14.20;;;-7.70;99.90;;;;;;4965038;28;20189;-78
2022/12/13 00:19:12;;;;;;;26.83;15.67;;;-7.10;99.90;;;;;;4968528;28;20221;-78
2022/12/13 00:21:38;;;;;;;28.20;14.90;;;-7.70;99.90;;;;;;4967874;28;20214;-78
2022/12/13 00:24:05;;;;;;;27.60;14.90;;;-7.70;99.90;;;;;;4975651;28;20215;-78
2022/12/13 00:26:31;;;;;;;26.50;14.27;;;-7.70;99.90;;;;;;4978260;28;20843;-78
2022/12/13 00:29:02;;;;;;;24.73;14.33;;;-7.50;99.90;;;;;;4977308;28;20188;-78
2022/12/13 00:31:30;;;;;;;24.07;13.53;;;-7.50;1.00;;;;;;4971871;28;20181;-78
2022/12/13 00:33:57;;;;;;;25.87;14.67;;;-7.50;1.00;;;;;;4979041;28;20211;-79
2022/12/13 00:36:22;;;;;;;27.40;15.50;;;-7.50;1.00;;;;;;4972965;28;20197;-79
2022/12/13 00:38:59;;;;;;;25.70;14.60;;;-7.60;1.00;;;;;;4971974;28;20211;-78
2022/12/13 00:41:27;;;;;;;25.50;13.47;;;-7.60;1.00;;;;;;4969143;28;20183;-79
2022/12/13 00:43:53;;;;;;;27.20;14.20;;;-7.50;1.00;;;;;;4977366;28;20205;-78
2022/12/13 00:46:20;;;;;;;24.07;12.93;;;-7.60;1.00;;;;;;4970716;28;20195;-78
2022/12/13 00:48:53;;;;;;;23.17;12.67;;;-7.70;99.90;;;;;;4975222;28;20191;-79
2022/12/13 00:51:20;;;;;;;24.87;13.23;;;-7.70;99.90;;;;;;4976769;28;20231;-78
2022/12/13 00:53:47;;;;;;;27.60;13.90;;;-7.40;99.90;;;;;;4970955;28;20244;-78
2022/12/13 00:56:15;;;;;;;21.27;12.73;;;-7.70;99.90;;;;;;4969405;28;20192;-78
2022/12/13 00:58:41;;;;;;;22.77;12.27;;;-7.70;99.90;;;;;;4978763;28;20246;-79
2022/12/13 01:01:10;;;;;;;21.53;12.33;;;-7.70;99.90;;;;;;4972343;28;20591;-78
2022/12/13 01:03:36;;;;;;;24.13;13.53;;;-7.10;99.90;;;;;;4971816;28;20267;-78
2022/12/13 01:06:08;;;;;;;20.53;12.03;;;-7.70;99.90;;;;;;4977372;28;20949;-78
2022/12/13 01:08:33;;;;;;;21.20;11.80;;;-7.20;99.90;;;;;;4982690;28;20557;-78
2022/12/13 01:10:59;;;;;;;21.03;12.50;;;-7.70;99.90;;;;;;4968517;28;20185;-78
2022/12/13 01:13:25;;;;;;;19.67;11.33;;;-7.70;99.90;;;;;;4968226;28;20200;-78
2022/12/13 01:15:50;;;;;;;21.23;11.40;;;-7.60;99.90;;;;;;4971934;28;20272;-78
2022/12/13 01:18:18;;;;;;;21.87;11.47;;;-7.80;99.90;;;;;;4972931;28;20678;-78
2022/12/13 01:21:02;;;;;;;22.43;11.80;;;-7.90;99.90;;;;;;4973554;28;20188;-78
2022/12/13 01:23:28;;;;;;;19.67;11.33;;;-7.80;99.90;;;;;;4967111;28;20275;-77
2022/12/13 01:25:54;;;;;;;19.40;10.93;;;-7.90;99.90;;;;;;4971899;28;20185;-78
2022/12/13 01:28:20;;;;;;;21.30;11.50;;;-8.00;99.90;;;;;;4981036;28;20184;-78
2022/12/13 01:30:57;;;;;;;19.93;10.83;;;-8.00;99.90;;;;;;4971799;28;20189;-78
2022/12/13 01:33:24;;;;;;;18.23;11.23;;;-8.00;99.90;;;;;;4967201;28;20291;-78
2022/12/13 01:35:50;;;;;;;20.93;12.57;;;-8.00;99.90;;;;;;4973464;28;20256;-79
2022/12/13 01:38:15;;;;;;;20.83;11.23;;;-8.10;99.90;;;;;;4974915;28;20654;-78
2022/12/13 01:40:46;;;;;;;21.47;11.47;;;-9.00;99.90;;;;;;4973121;28;20216;-78
2022/12/13 01:43:14;;;;;;;24.07;12.53;;;-8.10;99.90;;;;;;4976919;28;20674;-77
2022/12/13 01:45:40;;;;;;;21.60;12.30;;;-8.20;99.90;;;;;;4970032;28;20651;-78
2022/12/13 01:48:16;;;;;;;23.77;12.93;;;-8.20;99.90;;;;;;4976997;28;20189;-78
2022/12/13 01:50:48;;;;;;;22.70;12.33;;;-8.20;99.90;;;;;;4974295;28;20196;-78
2022/12/13 01:53:18;;;;;;;22.53;12.37;;;-8.10;99.90;;;;;;4979019;22;20233;-78
2022/12/13 01:55:48;;;;;;;25.10;13.37;;;-8.10;99.90;;;;;;4964506;28;20423;-77
2022/12/13 01:58:14;;;;;;;27.27;13.80;;;-8.10;99.90;;;;;;4965039;28;21224;-77
2022/12/13 02:00:40;;;;;;;23.57;13.27;;;-8.00;99.90;;;;;;4964996;28;20300;-77
2022/12/13 02:03:06;;;;;;;25.63;13.23;;;-8.00;99.90;;;;;;4963133;28;20247;-77
2022/12/13 02:05:50;;;;;;;26.23;13.83;;;-8.00;99.90;;;;;;4963216;28;21293;-80
2022/12/13 02:08:18;;;;;;;22.13;12.47;;;-8.00;99.90;;;;;;4962822;28;20228;-77
2022/12/13 02:10:44;;;;;;;23.53;13.33;;;-8.10;99.90;;;;;;4964278;28;20196;-77
2022/12/13 02:13:10;;;;;;;21.73;12.13;;;-8.10;99.90;;;;;;4963916;28;20205;-77
2022/12/13 02:15:54;;;;;;;22.13;12.70;;;-8.20;99.90;;;;;;4967093;28;21089;-77
2022/12/13 02:18:33;;;;;;;23.13;12.57;;;-8.20;99.90;;;;;;4982557;28;20199;-78
2022/12/13 02:21:09;;;;;;;23.63;12.67;;;-8.30;99.90;;;;;;4968315;28;20192;-77
2022/12/13 02:23:55;;;;;;;25.00;13.70;;;-8.20;99.90;;;;;;4966386;28;20208;-78
2022/12/13 02:26:42;;;;;;;28.50;12.57;;;-8.30;99.90;;;;;;4965405;28;20647;-77
2022/12/13 02:29:14;;;;;;;21.77;12.27;;;-8.30;99.90;;;;;;4967892;28;20716;-77
2022/12/13 02:31:45;;;;;;;23.97;12.87;;;-8.30;99.90;;;;;;4968168;28;20204;-77
2022/12/13 02:34:54;;;;;;;22.73;12.70;;;-8.40;99.90;;;;;;4966549;28;20205;-76
2022/12/13 02:37:25;;;;;;;23.30;11.63;;;-8.40;99.90;;;;;;4963015;28;20196;-79
2022/12/13 02:40:15;;;;;;;22.10;11.47;;;-8.40;99.90;;;;;;4966666;28;20200;-79
2022/12/13 02:42:53;;;;;;;22.30;12.73;;;-8.40;99.90;;;;;;4966550;28;20660;-76
2022/12/13 02:45:38;;;;;;;23.07;12.20;;;-8.30;99.90;;;;;;4966355;28;20173;-78
2022/12/13 02:48:06;;;;;;;22.30;12.13;;;-8.40;99.90;;;;;;4968029;28;20189;-76
2022/12/13 02:50:34;;;;;;;22.97;11.97;;;-8.30;99.90;;;;;;4967192;28;20205;-79
2022/12/13 02:53:00;;;;;;;20.17;11.73;;;-8.40;99.90;;;;;;4965810;28;20239;-78
2022/12/13 02:55:26;;;;;;;23.47;12.73;;;-8.40;99.90;;;;;;4966231;28;20224;-77
2022/12/13 02:57:51;;;;;;;21.50;11.67;;;-8.10;99.90;;;;;;4967738;28;20590;-77
2022/12/13 03:00:48;;;;;;;22.83;12.37;;;-8.20;99.90;;;;;;4966804;28;20211;-78
2022/12/13 03:03:13;;;;;;;22.23;12.00;;;-8.20;99.90;;;;;;4966581;28;20316;-77
2022/12/13 03:09:09;;;;;;;21.87;12.00;;;-8.30;99.90;;;;;;4966987;28;20232;-75
2022/12/13 03:14:44;;;;;;;25.63;13.07;;;-8.20;99.90;;;;;;4966242;28;20219;-76
2022/12/13 03:17:13;;;;;;;29.20;14.10;;;-8.30;99.90;;;;;;4966846;28;20268;-76
2022/12/13 03:19:39;;;;;;;29.07;15.03;;;-8.40;99.90;;;;;;4966123;28;20690;-76
2022/12/13 03:22:05;;;;;;;27.17;14.27;;;-8.40;99.90;;;;;;4965697;28;20181;-77
2022/12/13 03:24:31;;;;;;;30.63;14.47;;;-8.40;99.90;;;;;;4964575;28;20747;-76
2022/12/13 03:26:57;;;;;;;30.17;14.47;;;-8.40;99.90;;;;;;4964085;28;20197;-77
2022/12/13 03:29:22;;;;;;;26.00;14.27;;;-8.30;99.90;;;;;;4966399;28;20192;-77
2022/12/13 03:31:48;;;;;;;29.67;13.93;;;-8.40;99.90;;;;;;4965077;28;20300;-78
2022/12/13 03:34:14;;;;;;;26.17;13.20;;;-8.40;99.90;;;;;;4965912;28;20298;-77
2022/12/13 03:36:40;;;;;;;24.57;13.33;;;-8.40;99.90;;;;;;4966381;28;20193;-77
2022/12/13 03:39:05;;;;;;;22.60;13.03;;;-8.50;99.90;;;;;;4966219;28;20213;-77
2022/12/13 03:41:31;;;;;;;22.57;12.47;;;-8.50;99.90;;;;;;4965379;28;20197;-77
2022/12/13 03:44:04;;;;;;;23.60;11.33;;;-8.50;99.90;;;;;;4964589;28;20211;-77
2022/12/13 03:46:30;;;;;;;19.83;11.07;;;-8.60;99.90;;;;;;4965942;28;20177;-76
2022/12/13 03:48:56;;;;;;;21.87;11.13;;;-8.60;99.90;;;;;;4966475;28;20212;-79
2022/12/13 03:51:21;;;;;;;20.77;11.23;;;-8.60;99.90;;;;;;4965365;28;20196;-76
2022/12/13 03:53:47;;;;;;;21.80;10.97;;;-8.60;99.90;;;;;;4964643;28;20224;-77
2022/12/13 03:56:12;;;;;;;18.20;10.40;;;-8.60;99.90;;;;;;4966024;28;21372;-77
2022/12/13 03:58:41;;;;;;;25.70;15.10;;;-8.60;99.90;;;;;;4965430;28;20429;-77
2022/12/13 04:01:08;;;;;;;20.97;12.40;;;-8.60;99.90;;;;;;4965446;28;20177;-77
2022/12/13 04:03:35;;;;;;;19.73;11.57;;;-8.60;99.90;;;;;;4965529;28;20705;-77
2022/12/13 04:06:02;;;;;;;20.30;11.70;;;-8.60;99.90;;;;;;4964707;28;20189;-78
2022/12/13 04:08:28;;;;;;;22.23;11.77;;;-8.60;99.90;;;;;;4964617;28;20185;-78
2022/12/13 04:10:54;;;;;;;18.33;10.63;;;-8.70;99.90;;;;;;4965080;28;21044;-79
2022/12/13 04:13:31;;;;;;;19.40;9.97;;;-8.60;99.90;;;;;;4965158;28;20335;-78
2022/12/13 04:15:57;;;;;;;19.97;10.70;;;-8.60;99.90;;;;;;4965855;28;20188;-79
2022/12/13 04:18:22;;;;;;;20.23;10.57;;;-8.60;99.90;;;;;;4965408;28;20247;-78
2022/12/13 04:20:48;;;;;;;28.07;11.77;;;-8.60;99.90;;;;;;4965979;28;20228;-79
2022/12/13 04:23:13;;;;;;;21.63;10.00;;;-8.70;99.90;;;;;;4963791;28;20270;-78
2022/12/13 04:25:40;;;;;;;16.27;9.43;;;-8.70;99.90;;;;;;4965512;28;20243;-79
2022/12/13 04:28:06;;;;;;;18.73;9.67;;;-8.70;99.90;;;;;;4965642;28;20181;-77
2022/12/13 04:30:33;;;;;;;17.93;9.90;;;-8.60;99.90;;;;;;4965436;28;20207;-78
2022/12/13 04:32:58;;;;;;;16.43;8.87;;;-8.70;99.90;;;;;;4963359;28;20296;-76
2022/12/13 04:35:24;;;;;;;18.77;8.83;;;-8.70;99.90;;;;;;4964596;28;20762;-76
2022/12/13 04:37:49;;;;;;;17.80;8.83;;;-8.70;99.90;;;;;;4964993;28;20200;-77
2022/12/13 04:40:15;;;;;;;19.00;10.70;;;-8.60;99.90;;;;;;4964784;28;20291;-79
2022/12/13 04:42:41;;;;;;;16.63;9.53;;;-8.60;99.90;;;;;;4964883;28;20273;-78
2022/12/13 04:45:08;;;;;;;16.47;9.60;;;-8.60;99.90;;;;;;4964288;28;20303;-77
2022/12/13 04:47:33;;;;;;;15.03;8.83;;;-8.60;99.90;;;;;;4965202;28;20631;-77
2022/12/13 04:49:59;;;;;;;16.67;9.23;;;-8.60;99.90;;;;;;4964399;28;20275;-77
2022/12/13 04:52:25;;;;;;;15.73;8.77;;;-8.60;99.90;;;;;;4963732;28;20686;-77
2022/12/13 04:54:50;;;;;;;17.13;9.03;;;-8.60;99.90;;;;;;4964809;28;20189;-79
2022/12/13 04:57:16;;;;;;;17.27;8.87;;;-8.60;99.90;;;;;;4965655;28;20212;-79
2022/12/13 04:59:45;;;;;;;14.67;8.60;;;-8.70;99.90;;;;;;4964991;28;20607;-77
2022/12/13 05:02:11;;;;;;;18.67;9.20;;;-8.70;99.90;;;;;;4964968;28;20185;-77
2022/12/13 05:04:37;;;;;;;18.90;9.23;;;-8.60;99.90;;;;;;4963485;28;20209;-78
2022/12/13 05:07:02;;;;;;;16.03;7.97;;;-8.70;99.90;;;;;;4965395;28;20184;-78
2022/12/13 05:09:28;;;;;;;14.73;8.10;;;-8.70;99.90;;;;;;4964194;28;20188;-77
2022/12/13 05:11:54;;;;;;;14.60;8.53;;;-8.70;99.90;;;;;;4964874;28;20196;-79
2022/12/13 05:14:20;;;;;;;16.23;8.37;;;-8.70;99.90;;;;;;4963763;28;20223;-77
2022/12/13 05:16:45;;;;;;;15.40;8.50;;;-8.80;99.90;;;;;;4964708;28;20196;-78
2022/12/13 05:19:11;;;;;;;15.60;8.30;;;-8.70;99.90;;;;;;4962865;28;20209;-77
2022/12/13 05:21:36;;;;;;;13.10;7.60;;;-8.70;99.90;;;;;;4964385;28;20660;-77
2022/12/13 05:24:02;;;;;;;14.07;7.87;;;-8.70;99.90;;;;;;4964784;28;20201;-78
2022/12/13 05:26:28;;;;;;;14.17;7.27;;;-8.70;99.90;;;;;;4964871;28;20189;-79
2022/12/13 05:28:58;;;;;;;15.80;7.53;;;-8.70;99.90;;;;;;4964704;28;20189;-77
2022/12/13 05:31:24;;;;;;;14.13;7.70;;;-8.60;99.90;;;;;;4963821;28;20185;-80
2022/12/13 05:33:50;;;;;;;16.50;8.27;;;-8.70;99.90;;;;;;4964606;28;20585;-76
2022/12/13 05:36:16;;;;;;;14.17;7.77;;;-8.70;99.90;;;;;;4964473;28;20188;-76
2022/12/13 05:38:41;;;;;;;14.03;7.73;;;-8.70;99.90;;;;;;4964166;28;20324;-76
2022/12/13 05:41:13;;;;;;;16.20;7.67;;;-8.70;99.90;;;;;;4964291;28;20177;-77
2022/12/13 05:43:39;;;;;;;15.73;7.43;;;-8.70;99.90;;;;;;4964427;28;20212;-76
2022/12/13 05:46:05;;;;;;;15.70;7.97;;;-8.70;99.90;;;;;;4964043;28;20172;-77
2022/12/13 05:48:30;;;;;;;14.03;6.67;;;-8.60;99.90;;;;;;4967032;28;20189;-78
2022/12/13 05:50:56;;;;;;;14.07;7.07;;;-8.70;99.90;;;;;;4968430;28;20492;-77
2022/12/13 05:53:21;;;;;;;14.90;8.20;;;-8.70;99.90;;;;;;4966663;28;20217;-78
2022/12/13 05:55:47;;;;;;;13.57;7.50;;;-8.70;99.90;;;;;;4967343;28;20187;-78
2022/12/13 05:58:14;;;;;;;16.67;7.07;;;-8.80;99.90;;;;;;4967122;28;20244;-78
2022/12/13 06:00:39;;;;;;;15.13;8.07;;;-8.60;99.90;;;;;;4966259;28;20223;-77
2022/12/13 06:03:05;;;;;;;16.03;8.50;;;-8.60;99.90;;;;;;4967477;28;20201;-78
2022/12/13 06:05:31;;;;;;;16.17;7.43;;;-8.60;99.90;;;;;;4967855;28;20213;-77
2022/12/13 06:07:57;;;;;;;13.87;7.20;;;-8.70;99.90;;;;;;4968425;28;20538;-77
2022/12/13 06:10:22;;;;;;;15.43;7.80;;;-8.60;99.90;;;;;;4968052;28;20255;-78
2022/12/13 06:12:48;;;;;;;14.53;7.33;;;-8.50;99.90;;;;;;4967750;28;20235;-77
2022/12/13 06:15:14;;;;;;;12.40;7.07;;;-8.60;99.90;;;;;;4966970;28;20245;-77
2022/12/13 06:17:40;;;;;;;13.97;8.07;;;-8.50;99.90;;;;;;4967875;28;20307;-79
2022/12/13 06:20:06;;;;;;;14.93;7.80;;;-8.50;99.90;;;;;;4967309;28;20244;-76
2022/12/13 06:22:32;;;;;;;16.03;7.37;;;-8.40;99.90;;;;;;4966736;28;21001;-76
2022/12/13 06:24:57;;;;;;;16.35;9.95;;;-8.50;99.90;;;;;;4966570;28;20418;-75
2022/12/13 06:27:23;;;;;;;14.97;8.17;;;-8.50;99.90;;;;;;4967239;28;20272;-78
2022/12/13 06:29:49;;;;;;;14.53;7.60;;;-8.50;99.90;;;;;;4966637;28;20197;-78
2022/12/13 06:32:14;;;;;;;15.37;8.40;;;-8.40;99.90;;;;;;4981519;28;20181;-78
2022/12/13 06:34:40;;;;;;;13.83;7.43;;;-8.50;99.90;;;;;;4966777;28;20240;-78
2022/12/13 06:37:09;;;;;;;15.17;8.17;;;-8.50;99.90;;;;;;4968393;28;20189;-78
2022/12/13 06:39:35;;;;;;;17.98;10.10;;;-8.50;99.90;;;;;;4966426;28;20469;-77
2022/12/13 06:42:04;;;;;;;17.73;8.93;;;-8.50;99.90;;;;;;4966684;28;20189;-77
2022/12/13 06:44:30;;;;;;;15.20;7.73;;;-8.50;99.90;;;;;;4967059;28;20280;-77
2022/12/13 06:46:56;;;;;;;15.03;8.13;;;-8.50;99.90;;;;;;4967838;28;20280;-77
2022/12/13 06:49:21;;;;;;;14.27;7.83;;;-8.60;99.90;;;;;;4967622;28;20970;-78
2022/12/13 06:51:47;;;;;;;16.77;8.50;;;-8.50;99.90;;;;;;4965246;28;20197;-76
2022/12/13 06:54:12;;;;;;;14.63;8.07;;;-8.60;99.90;;;;;;4966345;28;20231;-77
2022/12/13 06:56:38;;;;;;;18.70;9.07;;;-8.50;99.90;;;;;;4965468;28;20193;-79
2022/12/13 06:59:04;;;;;;;14.37;7.63;;;-8.50;99.90;;;;;;4981327;28;20244;-76
2022/12/13 07:01:29;;;;;;;15.07;8.40;;;-8.50;99.90;;;;;;4966148;28;20189;-76
2022/12/13 07:03:56;;;;;;;13.47;7.43;;;-8.50;99.90;;;;;;4966374;28;20212;-77
2022/12/13 07:06:23;;;;;;;11.17;7.17;;;-8.50;99.90;;;;;;4965262;28;20251;-75
2022/12/13 07:08:52;;;;;;;15.70;7.57;;;-8.60;99.90;;;;;;4964869;28;20189;-79
2022/12/13 07:11:21;;;;;;;11.83;6.97;;;-8.70;99.90;;;;;;4965612;28;20559;-79
2022/12/13 07:13:46;;;;;;;14.40;7.60;;;-8.70;99.90;;;;;;4966904;28;20213;-77
2022/12/13 07:16:13;;;;;;;13.87;7.53;;;-8.70;99.90;;;;;;4966491;28;20187;-77
2022/12/13 07:18:38;;;;;;;13.90;7.63;;;-8.20;99.90;;;;;;4967004;28;20596;-77
2022/12/13 07:21:09;;;;;;;19.00;8.40;;;-8.60;99.90;;;;;;4966751;28;20180;-77
2022/12/13 07:23:35;;;;;;;15.47;8.13;;;-8.50;99.90;;;;;;4966108;28;20205;-77
2022/12/13 07:26:01;;;;;;;15.10;7.57;;;-8.50;99.90;;;;;;4966945;28;20189;-77
2022/12/13 07:28:27;;;;;;;17.87;8.43;;;-8.50;99.90;;;;;;4965679;28;20196;-77
2022/12/13 07:30:53;;;;;;;16.47;9.10;;;-8.20;99.90;;;;;;4968651;28;20193;-77
2022/12/13 07:33:18;;;;;;;16.37;8.20;;;-8.10;99.90;;;;;;4971942;28;20308;-77
2022/12/13 07:35:44;;;;;;;15.43;8.53;;;-8.20;99.90;;;;;;4975131;28;20235;-76
2022/12/13 07:38:10;;;;;;;14.97;8.80;;;-8.30;99.90;;;;;;4975191;28;20256;-77
2022/12/13 07:40:37;;;;;;;13.83;8.53;;;-8.30;99.90;;;;;;4973503;28;20291;-76
2022/12/13 07:43:04;;;;;;;14.60;8.53;;;-8.20;99.90;;;;;;4972257;28;20678;-77
2022/12/13 07:45:30;;;;;;;14.17;8.63;;;-8.10;99.90;;;;;;4967838;28;20200;-77
2022/12/13 07:47:56;;;;;;;18.03;9.93;;;-8.10;99.90;;;;;;4965255;28;20196;-77
2022/12/13 07:50:22;;;;;;;14.97;8.07;;;-8.00;99.90;;;;;;4965611;28;20205;-76
2022/12/13 07:52:49;;;;;;;14.97;8.67;;;-7.90;99.90;;;;;;4965675;28;20231;-77
2022/12/13 07:55:16;;;;;;;17.77;8.90;;;-7.80;99.90;;;;;;4981144;28;20219;-79
2022/12/13 07:57:45;;;;;;;17.87;10.03;;;-7.90;99.90;;;;;;4965309;28;20185;-78
2022/12/13 08:00:11;;;;;;;26.00;17.10;;;-7.60;1.00;;;;;;4964776;28;20558;-78
2022/12/13 08:02:38;;;;;;;17.17;11.60;;;-7.60;1.00;;;;;;4964405;28;20709;-78
2022/12/13 08:05:04;;;;;;;19.17;12.10;;;-7.50;1.00;;;;;;4963445;28;20616;-77
2022/12/13 08:07:29;;;;;;;16.27;10.13;;;-7.40;1.00;;;;;;4966033;28;20469;-79
2022/12/13 08:09:55;;;;;;;17.43;10.10;;;-7.40;1.00;;;;;;4963503;28;20247;-79
2022/12/13 08:12:20;;;;;;;19.10;11.20;;;-7.30;1.00;;;;;;4964233;28;20177;-77
2022/12/13 08:14:46;;;;;;;16.57;10.73;;;-7.20;1.00;;;;;;4964837;28;20209;-79
2022/12/13 08:17:12;;;;;;;17.93;10.13;;;-7.10;1.00;;;;;;4964489;28;20224;-78
2022/12/13 08:19:37;;;;;;;19.03;13.33;;;-6.90;1.00;;;;;;4965229;28;20738;-77
2022/12/13 08:22:03;;;;;;;21.63;13.33;;;-5.80;1.00;;;;;;4964469;28;20208;-77
2022/12/13 08:24:29;;;;;;;37.87;21.67;;;-6.70;1.00;;;;;;4964765;28;20647;-77
2022/12/13 08:27:01;;;;;;;27.97;15.73;;;-6.70;1.00;;;;;;4965060;28;20184;-76
2022/12/13 08:29:28;;;;;;;22.83;13.80;;;-5.90;1.00;;;;;;4965010;28;20187;-77
2022/12/13 08:31:54;;;;;;;17.53;10.70;;;-6.60;1.00;;;;;;4964859;28;20538;-76
2022/12/13 08:34:19;;;;;;;37.10;20.07;;;-6.60;1.00;;;;;;4963361;28;20706;-75
2022/12/13 08:36:45;;;;;;;33.20;17.47;;;-6.60;1.00;;;;;;4963970;28;20272;-79
2022/12/13 08:39:11;;;;;;;37.03;22.00;;;-6.60;1.00;;;;;;4965482;28;20199;-80
2022/12/13 08:41:36;;;;;;;18.13;11.13;;;-6.50;1.00;;;;;;4964673;28;20244;-78
2022/12/13 08:44:02;;;;;;;22.63;13.37;;;-6.50;1.00;;;;;;4963240;28;20220;-79
2022/12/13 08:46:28;;;;;;;20.57;13.10;;;-6.40;1.00;;;;;;4965844;28;20188;-78
2022/12/13 08:48:53;;;;;;;18.90;11.80;;;-6.30;1.00;;;;;;4964510;28;20196;-80
2022/12/13 08:51:22;;;;;;;20.87;12.67;;;-6.10;1.00;;;;;;4963354;28;20193;-79
2022/12/13 08:53:49;;;;;;;19.83;11.43;;;-6.10;1.00;;;;;;4960255;28;20220;-78
2022/12/13 08:56:17;;;;;;;18.30;10.83;;;-6.00;1.00;;;;;;4962094;28;20189;-76
2022/12/13 08:58:43;;;;;;;20.20;11.87;;;-5.90;99.90;;;;;;4962622;28;20183;-78
2022/12/13 09:01:09;;;;;;;18.83;10.80;;;-5.80;99.90;;;;;;4961594;28;20181;-77
2022/12/13 09:03:35;;;;;;;16.93;11.57;;;-5.70;99.90;;;;;;4962721;28;20617;-77
2022/12/13 09:06:09;;;;;;;22.13;11.70;;;-5.70;99.90;;;;;;4968534;28;20232;-77
2022/12/13 09:08:36;;;;;;;19.23;12.60;;;-5.60;99.90;;;;;;4984134;28;20181;-77
2022/12/13 09:11:02;;;;;;;21.10;12.87;;;-5.40;99.90;;;;;;4968082;28;20217;-76
2022/12/13 09:13:30;;;;;;;22.20;13.43;;;-5.40;99.90;;;;;;4967117;28;20213;-76
2022/12/13 09:15:55;;;;;;;22.47;13.43;;;-5.40;99.90;;;;;;4966370;28;20244;-79
2022/12/13 09:18:21;;;;;;;20.67;14.03;;;-5.40;99.90;;;;;;4968639;28;20184;-79
2022/12/13 09:20:47;;;;;;;17.57;11.63;;;-5.30;99.90;;;;;;4965456;28;20304;-77
2022/12/13 09:23:12;;;;;;;21.10;12.97;;;-5.30;99.90;;;;;;4969894;28;20272;-77
2022/12/13 09:25:38;;;;;;;22.73;12.60;;;-5.20;99.90;;;;;;4969787;28;20208;-78
2022/12/13 09:28:06;;;;;;;18.57;11.27;;;-5.10;99.90;;;;;;4969426;28;20272;-79
2022/12/13 09:30:32;;;;;;;19.00;11.53;;;-5.00;99.90;;;;;;4965732;28;20683;-78
2022/12/13 09:32:58;;;;;;;21.17;13.07;;;-5.00;99.90;;;;;;4962982;28;20220;-80
2022/12/13 09:35:23;;;;;;;25.33;13.90;;;-4.90;99.90;;;;;;4966261;28;20254;-78
2022/12/13 09:37:49;;;;;;;23.10;12.20;;;-4.80;99.90;;;;;;4967288;28;20576;-78
2022/12/13 09:40:24;;;;;;;21.97;11.93;;;-4.80;99.90;;;;;;4967112;28;20205;-79
2022/12/13 09:42:56;;;;;;;26.23;11.30;;;-4.70;99.90;;;;;;4967491;28;20244;-78
2022/12/13 09:45:22;;;;;;;25.93;12.03;;;-4.60;99.90;;;;;;4963090;28;20251;-79
2022/12/13 09:47:49;;;;;;;21.67;11.27;;;-4.60;99.90;;;;;;4965920;28;20246;-78
2022/12/13 09:50:27;;;;;;;20.10;10.87;;;-4.50;99.90;;;;;;4965280;28;20928;-77
2022/12/13 09:52:53;;;;;;;26.33;11.23;;;-4.40;99.90;;;;;;4965312;28;20234;-77
2022/12/13 09:55:27;;;;;;;21.23;11.03;;;-4.40;99.90;;;;;;4966023;28;20189;-76
2022/12/13 09:57:54;;;;;;;29.90;12.20;;;-4.40;99.90;;;;;;4964642;28;20758;-77
2022/12/13 10:00:24;;;;;;;39.77;12.27;;;-4.30;99.90;;;;;;4965897;28;20562;-80
2022/12/13 10:02:53;;;;;;;44.90;11.67;;;-3.60;99.90;;;;;;4966234;28;20201;-77
2022/12/13 10:05:35;;;;;;;32.20;11.03;;;-4.10;99.90;;;;;;4964916;28;20267;-77
2022/12/13 10:08:31;;;;;;;35.43;13.27;;;-4.00;99.90;;;;;;4965379;28;20239;-77
2022/12/13 10:10:56;;;;;;;37.70;13.63;;;-4.00;99.90;;;;;;4965083;28;20196;-77
2022/12/13 10:13:37;;;;;;;45.17;14.60;;;-3.90;99.90;;;;;;4965358;28;20208;-78
2022/12/13 10:16:10;;;;;;;34.63;11.67;;;-3.80;99.90;;;;;;4964551;28;21446;-76
2022/12/13 10:18:39;;;;;;;38.63;11.57;;;-3.80;99.90;;;;;;4966278;28;20192;-78
2022/12/13 10:21:37;;;;;;;29.87;11.67;;;-3.70;99.90;;;;;;4965936;28;20679;-78
2022/12/13 10:24:19;;;;;;;43.83;13.80;;;-3.60;99.90;;;;;;4965631;28;20224;-78
2022/12/13 10:26:45;;;;;;;58.70;13.43;;;-3.50;99.90;;;;;;4966569;28;20189;-78
2022/12/13 10:29:11;;;;;;;32.60;12.00;;;-3.50;99.90;;;;;;4966647;28;20196;-78
2022/12/13 10:31:48;;;;;;;38.03;13.23;;;-3.40;99.90;;;;;;4964722;28;20193;-78
2022/12/13 10:34:22;;;;;;;30.40;11.47;;;-3.40;99.90;;;;;;4964713;28;20212;-78
2022/12/13 10:36:48;;;;;;;46.20;12.23;;;-3.40;99.90;;;;;;4966365;28;20196;-80
2022/12/13 10:39:17;;;;;;;48.63;13.13;;;-3.40;99.90;;;;;;4964451;28;20247;-80
2022/12/13 10:41:45;;;;;;;33.97;12.03;;;-3.30;99.90;;;;;;4965119;28;20181;-78
2022/12/13 10:44:10;;;;;;;42.87;13.53;;;-3.30;99.90;;;;;;4965125;28;20200;-78
2022/12/13 10:47:00;;;;;;;21.43;10.83;;;-3.20;99.90;;;;;;4964946;28;20196;-78
2022/12/13 10:49:38;;;;;;;35.93;13.13;;;-3.30;99.90;;;;;;4956236;28;20236;-78
2022/12/13 10:52:04;;;;;;;35.03;12.50;;;-3.30;99.90;;;;;;4964045;28;20574;-78
2022/12/13 10:54:35;;;;;;;50.97;12.93;;;-3.30;99.90;;;;;;4966893;28;20293;-78
2022/12/13 10:57:01;;;;;;;48.73;13.77;;;-3.30;99.90;;;;;;4966068;28;20236;-78
2022/12/13 10:59:35;;;;;;;33.60;11.47;;;-3.30;99.90;;;;;;4966051;28;20679;-78
2022/12/13 11:02:34;;;;;;;45.00;12.50;;;-3.30;99.90;;;;;;4965828;28;20180;-78
2022/12/13 11:05:23;;;;;;;46.53;11.93;;;-3.20;99.90;;;;;;4964451;28;20215;-77
2022/12/13 11:07:49;;;;;;;63.97;14.57;;;-3.10;99.90;;;;;;4962239;28;20200;-78
2022/12/13 11:10:23;;;;;;;34.23;11.27;;;-3.10;99.90;;;;;;4966858;28;20224;-77
2022/12/13 11:12:50;;;;;;;38.47;11.97;;;-3.10;99.90;;;;;;4965675;28;20799;-78
2022/12/13 11:15:22;;;;;;;24.47;11.07;;;-3.10;99.90;;;;;;4965300;28;20193;-77
2022/12/13 11:17:54;;;;;;;28.30;12.93;;;-3.10;99.90;;;;;;4965701;28;20197;-77
2022/12/13 11:20:37;;;;;;;35.83;12.10;;;-3.00;99.90;;;;;;4965203;28;20267;-78
2022/12/13 11:23:05;;;;;;;21.77;11.30;;;-3.00;99.90;;;;;;4964838;28;20297;-79
2022/12/13 11:25:42;;;;;;;19.37;11.10;;;-2.90;99.90;;;;;;4964331;28;20189;-77
2022/12/13 11:28:08;;;;;;;24.83;10.73;;;-2.90;99.90;;;;;;4965370;28;20185;-77
2022/12/13 11:30:58;;;;;;;21.63;10.77;;;-2.80;99.90;;;;;;4964454;28;20207;-78
2022/12/13 11:33:48;;;;;;;18.27;10.30;;;-2.00;99.90;;;;;;4965087;28;20212;-76
2022/12/13 11:36:39;;;;;;;15.87;10.77;;;-2.70;99.90;;;;;;4963956;28;20227;-79
2022/12/13 11:39:31;;;;;;;18.07;10.33;;;-2.60;99.90;;;;;;4964608;28;20662;-79
2022/12/13 11:42:08;;;;;;;15.30;10.17;;;-2.50;99.90;;;;;;4964049;28;20216;-77
2022/12/13 11:45:01;;;;;;;16.47;10.47;;;-2.40;99.90;;;;;;4964980;28;20693;-80
2022/12/13 11:47:41;;;;;;;15.73;9.87;;;-2.30;99.90;;;;;;4965507;28;20288;-77
2022/12/13 11:50:35;;;;;;;15.53;10.33;;;-2.30;99.90;;;;;;4965018;28;20248;-77
2022/12/13 11:53:29;;;;;;;14.83;9.47;;;-2.30;99.90;;;;;;4964831;28;20685;-76
2022/12/13 11:56:22;;;;;;;15.70;9.50;;;-2.30;99.90;;;;;;4964825;28;20217;-78
2022/12/13 11:58:55;;;;;;;16.03;9.37;;;-2.30;99.90;;;;;;4964360;28;20239;-78
2022/12/13 12:01:28;;;;;;;18.90;9.70;;;-2.20;99.90;;;;;;4962653;28;20189;-80
2022/12/13 12:04:08;;;;;;;15.17;10.00;;;-2.20;99.90;;;;;;4962895;28;20201;-78
2022/12/13 12:07:17;;;;;;;14.23;9.47;;;-2.20;99.90;;;;;;4977317;28;20265;-79
2022/12/13 12:10:14;;;;;;;14.60;9.23;;;-2.30;99.90;;;;;;4960176;28;20222;-81
2022/12/13 12:13:09;;;;;;;14.97;9.20;;;-2.30;99.90;;;;;;4964064;28;20315;-78
2022/12/13 12:15:46;;;;;;;69.43;36.00;;;-2.30;99.90;;;;;;4957162;28;20193;-78
2022/12/13 12:18:16;;;;;;;24.83;15.00;;;-2.30;99.90;;;;;;4958019;28;20200;-77
2022/12/13 12:20:47;;;;;;;16.90;11.77;;;-2.30;99.90;;;;;;4961491;28;20220;-77
2022/12/13 12:23:29;;;;;;;16.40;11.03;;;-2.30;99.90;;;;;;4958983;28;20678;-77
2022/12/13 12:26:06;;;;;;;14.07;9.43;;;-1.00;99.90;;;;;;4960536;28;20200;-78
2022/12/13 12:29:06;;;;;;;15.80;10.40;;;-2.40;99.90;;;;;;4959226;28;20189;-78
2022/12/13 12:31:56;;;;;;;17.17;10.20;;;-2.40;99.90;;;;;;4959661;28;20560;-78
2022/12/13 12:34:49;;;;;;;15.23;10.40;;;-2.40;99.90;;;;;;4960487;28;20212;-77
2022/12/13 12:37:39;;;;;;;16.47;10.40;;;-2.40;99.90;;;;;;4960165;28;20212;-78
2022/12/13 12:40:31;;;;;;;16.53;10.23;;;-2.40;99.90;;;;;;4959251;28;20211;-77
2022/12/13 12:43:25;;;;;;;17.37;11.70;;;-2.40;92.80;;;;;;4958744;28;20209;-77
2022/12/13 12:46:09;;;;;;;17.70;10.80;;;-2.40;97.00;;;;;;4960622;28;20211;-77
2022/12/13 12:48:44;;;;;;;17.40;10.70;;;-2.40;99.90;;;;;;4959978;28;20227;-77
2022/12/13 12:51:27;;;;;;;15.50;10.40;;;-2.40;99.90;;;;;;4960194;28;20665;-76
2022/12/13 12:54:19;;;;;;;15.83;10.83;;;-2.40;99.00;;;;;;4958256;28;20232;-78